createdAt,value
2018-09-16T00:00:03.556Z,4.37
2018-09-16T00:02:33.025Z,4.67
2018-09-16T00:05:01.545Z,4.70
2018-09-16T00:07:30.122Z,4.60
2018-09-16T00:09:58.699Z,4.80
2018-09-16T00:12:27.256Z,4.30
2018-09-16T00:14:55.909Z,4.30
2018-09-16T00:17:24.445Z,4.90
2018-09-16T00:19:52.940Z,4.12
2018-09-16T00:22:21.488Z,4.47
2018-09-16T00:24:50.104Z,4.35
2018-09-16T00:27:18.657Z,4.60
2018-09-16T00:29:47.282Z,4.50
2018-09-16T00:32:21.010Z,4.60
2018-09-16T00:34:49.814Z,4.40
2018-09-16T00:37:18.476Z,4.37
2018-09-16T00:39:47.018Z,4.00
2018-09-16T00:42:15.631Z,4.55
2018-09-16T00:44:44.327Z,4.20
2018-09-16T00:47:13.056Z,4.90
2018-09-16T00:49:41.586Z,4.42
2018-09-16T00:52:10.213Z,4.78
2018-09-16T00:54:38.706Z,4.37
2018-09-16T00:57:07.191Z,4.50
2018-09-16T00:59:45.665Z,4.70
2018-09-16T01:02:14.355Z,4.22
2018-09-16T01:04:42.895Z,4.00
2018-09-16T01:07:11.353Z,4.62
2018-09-16T01:09:39.862Z,4.25
2018-09-16T01:12:08.648Z,4.30
2018-09-16T01:14:37.445Z,4.50
2018-09-16T01:17:06.378Z,4.45
2018-09-16T01:19:41.054Z,4.58
2018-09-16T01:22:09.572Z,4.40
2018-09-16T01:24:38.057Z,4.42
2018-09-16T01:27:07.008Z,4.60
2018-09-16T01:29:35.528Z,4.60
2018-09-16T01:32:04.308Z,4.58
2018-09-16T01:34:33.722Z,5.08
2018-09-16T01:37:07.860Z,4.50
2018-09-16T01:39:46.561Z,4.30
2018-09-16T01:42:16.162Z,4.10
2018-09-16T01:44:44.705Z,4.83
2018-09-16T01:47:13.298Z,4.12
2018-09-16T01:49:41.900Z,4.50
2018-09-16T01:52:10.499Z,4.00
2018-09-16T01:54:38.982Z,4.60
2018-09-16T01:57:07.504Z,4.60
2018-09-16T01:59:41.143Z,4.53
2018-09-16T02:02:09.783Z,4.45
2018-09-16T02:04:41.379Z,4.50
2018-09-16T02:07:10.703Z,4.55
2018-09-16T02:09:39.271Z,5.10
2018-09-16T02:12:10.667Z,5.10
2018-09-16T02:14:39.286Z,4.97
2018-09-16T02:17:07.870Z,5.00
2018-09-16T02:19:37.102Z,5.00
2018-09-16T02:22:05.867Z,4.87
2018-09-16T02:24:36.457Z,4.95
2018-09-16T02:27:05.306Z,4.60
2018-09-16T02:29:35.582Z,4.40
2018-09-16T02:32:06.510Z,4.87
2018-09-16T02:34:36.760Z,4.90
2018-09-16T02:37:05.615Z,4.70
2018-09-16T02:39:39.467Z,4.40
2018-09-16T02:42:08.862Z,4.30
2018-09-16T02:44:38.341Z,4.60
2018-09-16T02:47:08.097Z,4.53
2018-09-16T02:49:37.031Z,4.67
2018-09-16T02:52:06.346Z,4.72
2018-09-16T02:54:35.032Z,4.70
2018-09-16T02:57:03.697Z,4.95
2018-09-16T02:59:32.319Z,4.60
2018-09-16T03:02:00.869Z,4.83
2018-09-16T03:04:29.378Z,4.53
2018-09-16T03:06:57.928Z,4.70
2018-09-16T03:09:26.849Z,4.40
2018-09-16T03:11:55.430Z,4.73
2018-09-16T03:14:24.059Z,4.47
2018-09-16T03:16:52.630Z,4.58
2018-09-16T03:19:21.304Z,4.40
2018-09-16T03:21:50.498Z,4.62
2018-09-16T03:24:19.040Z,4.60
2018-09-16T03:26:47.673Z,4.10
2018-09-16T03:29:16.283Z,4.37
2018-09-16T03:31:44.817Z,4.35
2018-09-16T03:34:13.634Z,4.50
2018-09-16T03:36:42.170Z,4.40
2018-09-16T03:39:11.411Z,4.70
2018-09-16T03:41:39.891Z,4.65
2018-09-16T03:44:09.135Z,4.25
2018-09-16T03:46:37.728Z,4.70
2018-09-16T03:49:07.126Z,4.42
2018-09-16T03:51:35.659Z,4.10
2018-09-16T03:54:04.312Z,4.33
2018-09-16T03:56:32.786Z,4.80
2018-09-16T03:59:01.312Z,4.85
2018-09-16T04:01:39.278Z,5.33
2018-09-16T04:04:07.913Z,4.70
2018-09-16T04:06:36.491Z,4.90
2018-09-16T04:09:08.209Z,4.75
2018-09-16T04:11:36.785Z,5.13
2018-09-16T04:14:05.681Z,4.80
2018-09-16T04:16:34.294Z,4.50
2018-09-16T04:19:04.006Z,4.37
2018-09-16T04:21:32.785Z,4.70
2018-09-16T04:24:02.261Z,4.67
2018-09-16T04:26:33.155Z,4.67
2018-09-16T04:29:02.019Z,4.28
2018-09-16T04:31:36.680Z,4.60
2018-09-16T04:34:06.117Z,4.50
2018-09-16T04:36:34.943Z,4.77
2018-09-16T04:39:03.802Z,4.85
2018-09-16T04:41:37.409Z,4.70
2018-09-16T04:44:06.074Z,4.70
2018-09-16T04:46:34.605Z,4.62
2018-09-16T04:49:03.237Z,4.65
2018-09-16T04:51:31.988Z,4.47
2018-09-16T04:54:00.763Z,4.23
2018-09-16T04:56:29.212Z,4.10
2018-09-16T04:58:58.192Z,4.60
2018-09-16T05:01:26.927Z,4.90
2018-09-16T05:03:55.520Z,4.70
2018-09-16T05:06:24.109Z,4.80
2018-09-16T05:08:52.630Z,5.17
2018-09-16T05:11:21.160Z,5.27
2018-09-16T05:13:49.652Z,4.20
2018-09-16T05:16:18.266Z,4.40
2018-09-16T05:18:46.863Z,5.00
2018-09-16T05:21:15.648Z,4.60
2018-09-16T05:23:44.346Z,4.80
2018-09-16T05:26:13.954Z,4.60
2018-09-16T05:28:42.645Z,4.73
2018-09-16T05:31:11.340Z,4.90
2018-09-16T05:33:39.956Z,4.70
2018-09-16T05:36:08.880Z,5.20
2018-09-16T05:38:37.564Z,5.63
2018-09-16T05:41:06.397Z,5.37
2018-09-16T05:43:34.999Z,5.13
2018-09-16T05:46:03.937Z,5.00
2018-09-16T05:48:32.581Z,5.03
2018-09-16T05:51:10.656Z,5.67
2018-09-16T05:53:39.257Z,5.53
2018-09-16T05:56:07.787Z,5.27
2018-09-16T05:58:36.475Z,5.27
2018-09-16T06:01:14.513Z,5.03
2018-09-16T06:03:43.168Z,5.37
2018-09-16T06:06:12.385Z,5.30
2018-09-16T06:08:40.909Z,5.13
2018-09-16T06:11:14.617Z,5.40
2018-09-16T06:13:43.341Z,5.17
2018-09-16T06:16:12.080Z,5.00
2018-09-16T06:18:40.669Z,5.90
2018-09-16T06:21:14.476Z,5.43
2018-09-16T06:23:43.110Z,5.63
2018-09-16T06:26:11.823Z,5.47
2018-09-16T06:28:40.384Z,5.57
2018-09-16T06:31:08.912Z,5.27
2018-09-16T06:33:37.586Z,5.47
2018-09-16T06:36:06.312Z,5.53
2018-09-16T06:38:34.997Z,5.87
2018-09-16T06:41:13.245Z,5.10
2018-09-16T06:43:41.844Z,5.70
2018-09-16T06:46:10.785Z,5.70
2018-09-16T06:48:39.498Z,5.87
2018-09-16T06:51:30.601Z,5.43
2018-09-16T06:53:59.585Z,5.30
2018-09-16T06:56:29.094Z,5.63
2018-09-16T06:58:58.101Z,5.97
2018-09-16T07:01:27.267Z,6.13
2018-09-16T07:03:56.185Z,5.57
2018-09-16T07:06:24.768Z,6.33
2018-09-16T07:08:53.462Z,6.00
2018-09-16T07:11:22.346Z,5.80
2018-09-16T07:13:50.962Z,6.10
2018-09-16T07:16:19.810Z,6.30
2018-09-16T07:21:35.148Z,6.30
2018-09-16T07:24:05.712Z,5.70
2018-09-16T07:26:34.582Z,5.87
2018-09-16T07:29:04.562Z,5.67
2018-09-16T07:31:33.331Z,6.03
2018-09-16T07:34:01.990Z,6.17
2018-09-16T07:36:30.587Z,5.93
2018-09-16T07:38:59.165Z,5.40
2018-09-16T07:41:27.874Z,5.70
2018-09-16T07:43:59.327Z,6.28
2018-09-16T07:46:28.031Z,6.25
2018-09-16T07:48:56.705Z,6.37
2018-09-16T07:51:25.331Z,6.50
2018-09-16T07:53:54.003Z,5.97
2018-09-16T07:56:22.767Z,6.70
2018-09-16T07:58:51.343Z,6.37
2018-09-16T08:01:20.112Z,5.67
2018-09-16T08:03:48.668Z,5.97
2018-09-16T08:06:17.416Z,6.12
2018-09-16T08:08:46.102Z,5.28
2018-09-16T08:11:15.063Z,5.60
2018-09-16T08:13:44.735Z,6.15
2018-09-16T08:16:13.477Z,5.60
2018-09-16T08:18:42.411Z,5.47
2018-09-16T08:21:11.072Z,4.77
2018-09-16T08:23:40.074Z,6.40
2018-09-16T08:26:09.094Z,5.33
2018-09-16T08:28:39.350Z,6.73
2018-09-16T08:31:09.216Z,5.10
2018-09-16T08:33:37.937Z,4.87
2018-09-16T08:36:06.581Z,4.67
2018-09-16T08:38:35.772Z,4.50
2018-09-16T08:41:04.563Z,4.70
2018-09-16T08:43:33.514Z,4.40
2018-09-16T08:46:02.280Z,4.30
2018-09-16T08:48:30.857Z,4.35
2018-09-16T08:50:59.589Z,4.15
2018-09-16T08:53:28.152Z,4.20
2018-09-16T08:55:56.887Z,3.75
2018-09-16T08:58:25.953Z,3.43
2018-09-16T09:00:54.623Z,3.70
2018-09-16T09:03:23.590Z,3.22
2018-09-16T09:05:52.211Z,3.40
2018-09-16T09:08:20.893Z,3.70
2018-09-16T09:10:49.558Z,3.87
2018-09-16T09:13:18.273Z,3.50
2018-09-16T09:15:47.008Z,3.40
2018-09-16T09:18:15.735Z,4.17
2018-09-16T09:20:44.946Z,3.52
2018-09-16T09:23:13.825Z,3.27
2018-09-16T09:25:42.547Z,3.17
2018-09-16T09:28:11.244Z,4.28
2018-09-16T09:30:40.116Z,3.10
2018-09-16T09:33:09.011Z,3.22
2018-09-16T09:35:38.266Z,2.90
2018-09-16T09:38:07.096Z,3.10
2018-09-16T09:40:35.860Z,3.10
2018-09-16T09:43:04.687Z,3.00
2018-09-16T09:45:33.314Z,2.80
2018-09-16T09:48:02.167Z,2.70
2018-09-16T09:50:31.381Z,2.58
2018-09-16T09:53:00.637Z,2.15
2018-09-16T09:55:29.292Z,2.37
2018-09-16T09:57:58.584Z,2.70
2018-09-16T10:00:32.414Z,2.50
2018-09-16T10:03:01.072Z,2.87
2018-09-16T10:05:29.844Z,3.15
2018-09-16T10:07:58.490Z,2.40
2018-09-16T10:10:27.330Z,2.50
2018-09-16T10:12:56.244Z,2.60
2018-09-16T10:15:25.007Z,2.80
2018-09-16T10:17:53.752Z,2.20
2018-09-16T10:20:22.496Z,2.17
2018-09-16T10:22:50.978Z,2.50
2018-09-16T10:25:19.510Z,2.90
2018-09-16T10:27:48.073Z,2.58
2018-09-16T10:30:23.023Z,2.65
2018-09-16T10:32:52.229Z,2.50
2018-09-16T10:35:21.064Z,2.15
2018-09-16T10:37:49.692Z,2.52
2018-09-16T10:40:18.281Z,2.30
2018-09-16T10:42:47.008Z,2.25
2018-09-16T10:45:15.748Z,2.47
2018-09-16T10:47:44.613Z,2.40
2018-09-16T10:50:13.398Z,2.40
2018-09-16T10:52:42.170Z,2.10
2018-09-16T10:55:10.749Z,2.17
2018-09-16T10:57:39.298Z,2.20
2018-09-16T11:00:07.733Z,2.33
2018-09-16T11:02:36.502Z,2.50
2018-09-16T11:05:05.312Z,2.37
2018-09-16T11:07:34.047Z,2.47
2018-09-16T11:10:02.894Z,2.17
2018-09-16T11:12:31.438Z,2.27
2018-09-16T11:15:00.132Z,2.33
2018-09-16T11:17:28.762Z,2.40
2018-09-16T11:19:57.316Z,2.10
2018-09-16T11:22:25.993Z,2.00
2018-09-16T11:24:54.791Z,2.13
2018-09-16T11:27:25.400Z,2.30
2018-09-16T11:29:54.144Z,2.33
2018-09-16T11:32:23.425Z,2.05
2018-09-16T11:34:53.078Z,2.03
2018-09-16T11:37:31.742Z,2.05
2018-09-16T11:40:02.794Z,2.20
2018-09-16T11:42:32.976Z,2.12
2018-09-16T11:45:01.810Z,2.20
2018-09-16T11:47:40.430Z,1.95
2018-09-16T11:50:13.003Z,1.85
2018-09-16T11:52:41.764Z,1.90
2018-09-16T11:55:10.658Z,1.73
2018-09-16T11:57:39.211Z,1.92
2018-09-16T12:00:07.864Z,2.20
2018-09-16T12:02:42.035Z,1.90
2018-09-16T12:05:11.571Z,2.40
2018-09-16T12:07:48.614Z,2.20
2018-09-16T12:10:18.588Z,2.37
2018-09-16T12:12:47.852Z,1.87
2018-09-16T12:15:17.149Z,1.70
2018-09-16T12:17:47.264Z,1.70
2018-09-16T12:20:16.374Z,2.02
2018-09-16T12:22:44.931Z,2.00
2018-09-16T12:25:13.620Z,1.90
2018-09-16T12:27:42.224Z,1.80
2018-09-16T12:30:10.937Z,1.90
2018-09-16T12:32:39.475Z,1.90
2018-09-16T12:35:08.074Z,1.70
2018-09-16T12:37:37.869Z,1.97
2018-09-16T12:40:06.574Z,1.92
2018-09-16T12:42:36.142Z,1.57
2018-09-16T12:45:05.056Z,1.90
2018-09-16T12:47:33.833Z,1.60
2018-09-16T12:50:03.240Z,2.00
2018-09-16T12:52:31.900Z,2.08
2018-09-16T12:55:00.754Z,1.90
2018-09-16T12:57:29.639Z,1.90
2018-09-16T12:59:58.798Z,2.05
2018-09-16T13:02:27.970Z,1.95
2018-09-16T13:04:58.014Z,2.00
2018-09-16T13:07:26.734Z,1.90
2018-09-16T13:09:55.493Z,2.30
2018-09-16T13:12:24.144Z,2.25
2018-09-16T13:14:53.521Z,2.52
2018-09-16T13:17:22.299Z,1.80
2018-09-16T13:19:50.949Z,1.90
2018-09-16T13:22:19.551Z,1.90
2018-09-16T13:24:47.992Z,2.08
2018-09-16T13:27:16.535Z,2.10
2018-09-16T13:29:45.484Z,1.80
2018-09-16T13:32:14.045Z,1.80
2018-09-16T13:34:43.001Z,2.25
2018-09-16T13:37:11.535Z,2.00
2018-09-16T13:39:40.234Z,2.08
2018-09-16T13:42:08.789Z,1.92
2018-09-16T13:44:37.503Z,2.10
2018-09-16T13:47:06.194Z,2.00
2018-09-16T13:49:34.814Z,1.97
2018-09-16T13:52:03.590Z,2.17
2018-09-16T13:54:32.261Z,2.20
2018-09-16T13:57:01.749Z,2.15
2018-09-16T13:59:30.424Z,2.02
2018-09-16T14:01:59.110Z,2.00
2018-09-16T14:04:27.911Z,1.87
2018-09-16T14:06:56.473Z,1.80
2018-09-16T14:09:25.230Z,1.80
2018-09-16T14:11:54.395Z,1.95
2018-09-16T14:14:26.314Z,4.05
2018-09-16T14:16:54.927Z,4.80
2018-09-16T14:19:23.534Z,1.98
2018-09-16T14:21:52.223Z,2.00
2018-09-16T14:24:20.855Z,2.12
2018-09-16T14:26:49.406Z,1.95
2018-09-16T14:29:17.969Z,1.97
2018-09-16T14:31:46.752Z,2.17
2018-09-16T14:34:15.646Z,2.10
2018-09-16T14:36:44.311Z,2.50
2018-09-16T14:39:12.815Z,2.00
2018-09-16T14:41:41.590Z,2.02
2018-09-16T14:44:10.274Z,1.90
2018-09-16T14:46:39.046Z,5.80
2018-09-16T14:49:07.842Z,10.58
2018-09-16T14:51:36.572Z,9.95
2018-09-16T14:54:05.230Z,3.50
2018-09-16T14:56:34.155Z,3.20
2018-09-16T14:59:02.914Z,3.20
2018-09-16T15:01:31.701Z,2.60
2018-09-16T15:04:00.284Z,2.50
2018-09-16T15:06:28.943Z,2.15
2018-09-16T15:08:57.703Z,1.98
2018-09-16T15:11:26.419Z,2.33
2018-09-16T15:13:55.175Z,2.50
2018-09-16T15:16:23.828Z,2.10
2018-09-16T15:18:52.784Z,2.10
2018-09-16T15:21:21.753Z,2.00
2018-09-16T15:23:50.453Z,2.25
2018-09-16T15:26:18.972Z,2.17
2018-09-16T15:28:48.319Z,2.80
2018-09-16T15:31:17.340Z,2.20
2018-09-16T15:36:37.214Z,24.23
2018-09-16T15:39:28.460Z,2.50
2018-09-16T15:42:09.051Z,2.60
2018-09-16T15:44:47.673Z,3.17
2018-09-16T15:47:26.982Z,2.30
2018-09-16T15:49:59.318Z,2.13
2018-09-16T15:52:28.205Z,2.60
2018-09-16T15:54:56.838Z,2.30
2018-09-16T15:57:25.498Z,2.20
2018-09-16T15:59:54.009Z,2.23
2018-09-16T16:02:22.793Z,1.90
2018-09-16T16:04:51.622Z,5.92
2018-09-16T16:07:20.180Z,4.03
2018-09-16T16:09:48.794Z,2.50
2018-09-16T16:12:17.416Z,2.30
2018-09-16T16:14:45.979Z,2.33
2018-09-16T16:17:14.606Z,2.30
2018-09-16T16:19:43.200Z,2.35
2018-09-16T16:22:11.865Z,2.50
2018-09-16T16:24:40.534Z,1.92
2018-09-16T16:27:09.126Z,2.67
2018-09-16T16:29:37.939Z,16.25
2018-09-16T16:32:06.800Z,11.80
2018-09-16T16:34:35.591Z,5.05
2018-09-16T16:37:04.624Z,2.98
2018-09-16T16:39:33.675Z,2.60
2018-09-16T16:42:02.386Z,2.40
2018-09-16T16:44:31.030Z,2.30
2018-09-16T16:46:59.795Z,2.45
2018-09-16T16:49:28.379Z,2.20
2018-09-16T16:51:57.030Z,2.27
2018-09-16T16:54:25.735Z,2.20
2018-09-16T16:56:54.638Z,2.20
2018-09-16T16:59:23.341Z,1.90
2018-09-16T17:01:51.962Z,2.12
2018-09-16T17:04:20.711Z,2.72
2018-09-16T17:06:49.351Z,2.60
2018-09-16T17:09:18.254Z,2.40
2018-09-16T17:11:46.872Z,2.55
2018-09-16T17:14:15.532Z,2.60
2018-09-16T17:16:44.173Z,2.55
2018-09-16T17:19:12.793Z,2.60
2018-09-16T17:21:46.504Z,2.53
2018-09-16T17:24:15.421Z,2.60
2018-09-16T17:26:44.155Z,2.40
2018-09-16T17:29:12.983Z,2.27
2018-09-16T17:31:46.602Z,2.55
2018-09-16T17:34:15.115Z,2.80
2018-09-16T17:36:43.782Z,2.70
2018-09-16T17:39:13.247Z,2.90
2018-09-16T17:41:42.011Z,3.02
2018-09-16T17:44:10.719Z,3.40
2018-09-16T17:46:40.205Z,3.45
2018-09-16T17:49:08.789Z,3.20
2018-09-16T17:51:38.199Z,3.33
2018-09-16T17:54:06.789Z,3.42
2018-09-16T17:56:35.526Z,3.47
2018-09-16T17:59:04.004Z,3.47
2018-09-16T18:01:32.711Z,4.05
2018-09-16T18:04:01.765Z,3.92
2018-09-16T18:06:30.440Z,3.95
2018-09-16T18:09:02.989Z,4.00
2018-09-16T18:13:01.990Z,4.30
2018-09-16T18:15:32.549Z,4.22
2018-09-16T18:18:03.661Z,4.40
2018-09-16T18:20:32.362Z,4.65
2018-09-16T18:23:01.147Z,4.85
2018-09-16T18:25:30.011Z,4.85
2018-09-16T18:27:58.965Z,5.00
2018-09-16T18:30:27.711Z,5.05
2018-09-16T18:32:56.543Z,5.00
2018-09-16T18:35:26.797Z,5.33
2018-09-16T18:37:55.413Z,4.70
2018-09-16T18:40:27.355Z,5.40
2018-09-16T18:43:04.591Z,5.03
2018-09-16T18:45:33.427Z,5.45
2018-09-16T18:48:02.144Z,6.58
2018-09-16T18:50:31.819Z,5.10
2018-09-16T18:53:00.295Z,5.28
2018-09-16T18:55:29.488Z,5.10
2018-09-16T18:57:58.698Z,4.78
2018-09-16T19:00:27.628Z,4.90
2018-09-16T19:02:56.411Z,5.22
2018-09-16T19:05:25.174Z,5.65
2018-09-16T19:07:53.932Z,4.87
2018-09-16T19:10:22.418Z,5.45
2018-09-16T19:12:51.240Z,5.00
2018-09-16T19:15:20.318Z,5.10
2018-09-16T19:17:49.337Z,4.90
2018-09-16T19:20:18.158Z,5.12
2018-09-16T19:22:48.006Z,4.92
2018-09-16T19:25:16.598Z,4.90
2018-09-16T19:27:45.229Z,5.05
2018-09-16T19:30:15.178Z,5.17
2018-09-16T19:32:43.992Z,5.05
2018-09-16T19:35:12.742Z,5.28
2018-09-16T19:37:41.360Z,5.27
2018-09-16T19:40:10.414Z,5.10
2018-09-16T19:42:38.957Z,5.20
2018-09-16T19:45:09.144Z,4.90
2018-09-16T19:47:37.937Z,5.20
2018-09-16T19:50:06.818Z,5.47
2018-09-16T19:52:35.503Z,5.28
2018-09-16T19:55:04.093Z,6.30
2018-09-16T19:57:32.944Z,12.17
2018-09-16T20:00:01.530Z,6.20
2018-09-16T20:02:30.191Z,6.12
2018-09-16T20:04:58.854Z,5.97
2018-09-16T20:07:27.600Z,6.42
2018-09-16T20:09:56.225Z,6.20
2018-09-16T20:12:25.076Z,6.37
2018-09-16T20:14:53.615Z,6.03
2018-09-16T20:17:22.233Z,6.00
2018-09-16T20:19:50.972Z,6.80
2018-09-16T20:22:19.529Z,6.90
2018-09-16T20:24:48.472Z,6.20
2018-09-16T20:27:17.079Z,6.35
2018-09-16T20:29:45.660Z,6.43
2018-09-16T20:32:14.442Z,6.62
2018-09-16T20:34:43.052Z,6.92
2018-09-16T20:37:11.920Z,6.70
2018-09-16T20:39:40.905Z,6.97
2018-09-16T20:42:09.533Z,6.85
2018-09-16T20:44:38.222Z,7.03
2018-09-16T20:47:06.917Z,6.63
2018-09-16T20:49:35.561Z,7.35
2018-09-16T20:52:04.277Z,6.87
2018-09-16T20:54:32.811Z,6.80
2018-09-16T20:57:01.422Z,7.40
2018-09-16T20:59:29.977Z,7.15
2018-09-16T21:01:58.599Z,7.00
2018-09-16T21:04:27.247Z,7.08
2018-09-16T21:06:55.899Z,7.00
2018-09-16T21:09:24.899Z,7.23
2018-09-16T21:11:53.533Z,7.53
2018-09-16T21:14:22.235Z,7.70
2018-09-16T21:16:50.988Z,7.33
2018-09-16T21:19:19.512Z,7.70
2018-09-16T21:21:53.379Z,7.40
2018-09-16T21:24:22.299Z,7.67
2018-09-16T21:26:51.465Z,7.15
2018-09-16T21:29:20.118Z,7.67
2018-09-16T21:31:48.711Z,6.80
2018-09-16T21:34:17.335Z,7.30
2018-09-16T21:36:45.818Z,7.05
2018-09-16T21:39:14.536Z,6.70
2018-09-16T21:41:48.284Z,6.97
2018-09-16T21:44:16.848Z,7.17
2018-09-16T21:46:46.609Z,6.97
2018-09-16T21:49:15.265Z,6.97
2018-09-16T21:51:43.893Z,6.85
2018-09-16T21:54:12.482Z,6.97
2018-09-16T21:56:41.015Z,6.67
2018-09-16T21:59:09.701Z,6.85
2018-09-16T22:01:38.426Z,6.50
2018-09-16T22:04:07.032Z,6.58
2018-09-16T22:06:35.507Z,5.95
2018-09-16T22:09:05.005Z,5.75
2018-09-16T22:11:33.680Z,6.00
2018-09-16T22:14:02.126Z,5.03
2018-09-16T22:16:30.640Z,4.80
2018-09-16T22:18:59.121Z,4.95
2018-09-16T22:21:28.493Z,5.35
2018-09-16T22:23:56.969Z,5.03
2018-09-16T22:26:25.493Z,5.28
2018-09-16T22:28:53.974Z,5.15
2018-09-16T22:31:22.798Z,5.22
2018-09-16T22:33:51.290Z,4.80
2018-09-16T22:36:19.722Z,5.37
2018-09-16T22:38:48.234Z,5.47
2018-09-16T22:41:22.909Z,5.53
2018-09-16T22:43:54.651Z,5.58
2018-09-16T22:46:23.391Z,5.15
2018-09-16T22:48:53.701Z,4.92
2018-09-16T22:51:35.875Z,4.97
2018-09-16T22:54:05.921Z,4.87
2018-09-16T22:56:36.059Z,4.65
2018-09-16T22:59:07.623Z,4.78
2018-09-16T23:04:18.486Z,5.05
2018-09-16T23:06:51.266Z,4.62
2018-09-16T23:09:20.345Z,4.58
2018-09-16T23:11:49.366Z,5.10
2018-09-16T23:14:19.206Z,4.67
2018-09-16T23:16:48.172Z,4.60
2018-09-16T23:19:16.910Z,4.80
2018-09-16T23:21:45.385Z,4.80
2018-09-16T23:24:15.218Z,5.20
2018-09-16T23:26:44.053Z,5.28
2018-09-16T23:29:12.819Z,4.72
2018-09-16T23:31:41.513Z,4.60
2018-09-16T23:34:10.971Z,5.20
2018-09-16T23:36:39.687Z,4.67
2018-09-16T23:39:09.472Z,4.28
2018-09-16T23:41:38.712Z,4.55
2018-09-16T23:44:08.565Z,4.22
2018-09-16T23:46:37.605Z,4.50
2018-09-16T23:49:07.126Z,4.33
2018-09-16T23:51:37.213Z,4.10
2018-09-16T23:54:07.294Z,5.05
2018-09-16T23:56:37.036Z,5.05
2018-09-16T23:59:05.865Z,4.50
